sensor_id;sensor_type;location;lat;lon;timestamp;temperature;humidity
23813;DHT22;12087;45.190;5.688;2023-06-22T00:01:24;24.80;99.90
23813;DHT22;12087;45.190;5.688;2023-06-22T00:06:46;24.70;99.90
23813;DHT22;12087;45.190;5.688;2023-06-22T00:12:10;24.70;99.90
23813;DHT22;12087;45.190;5.688;2023-06-22T00:17:32;24.50;99.90
23813;DHT22;12087;45.190;5.688;2023-06-22T00:22:54;24.40;99.90
23813;DHT22;12087;45.190;5.688;2023-06-22T00:28:18;24.30;99.90
23813;DHT22;12087;45.190;5.688;2023-06-22T00:33:40;24.30;99.90
23813;DHT22;12087;45.190;5.688;2023-06-22T00:39:03;24.30;99.90
23813;DHT22;12087;45.190;5.688;2023-06-22T00:44:28;24.30;99.90
23813;DHT22;12087;45.190;5.688;2023-06-22T00:49:50;24.10;99.90
23813;DHT22;12087;45.190;5.688;2023-06-22T00:55:13;24.10;99.90
23813;DHT22;12087;45.190;5.688;2023-06-22T01:00:40;24.00;99.90
23813;DHT22;12087;45.190;5.688;2023-06-22T01:06:08;23.90;99.90
23813;DHT22;12087;45.190;5.688;2023-06-22T01:11:36;23.90;99.90
23813;DHT22;12087;45.190;5.688;2023-06-22T01:17:01;23.80;99.90
23813;DHT22;12087;45.190;5.688;2023-06-22T01:22:26;23.80;99.90
23813;DHT22;12087;45.190;5.688;2023-06-22T01:27:58;23.80;99.90
23813;DHT22;12087;45.190;5.688;2023-06-22T01:33:24;23.70;99.90
23813;DHT22;12087;45.190;5.688;2023-06-22T01:38:47;23.60;99.90
23813;DHT22;12087;45.190;5.688;2023-06-22T01:44:09;23.70;99.90
23813;DHT22;12087;45.190;5.688;2023-06-22T01:49:34;23.80;99.90
23813;DHT22;12087;45.190;5.688;2023-06-22T01:54:56;23.80;99.90
23813;DHT22;12087;45.190;5.688;2023-06-22T02:00:20;23.80;99.90
23813;DHT22;12087;45.190;5.688;2023-06-22T02:05:49;23.60;99.90
23813;DHT22;12087;45.190;5.688;2023-06-22T02:11:13;23.50;99.90
23813;DHT22;12087;45.190;5.688;2023-06-22T02:16:37;23.50;99.90
23813;DHT22;12087;45.190;5.688;2023-06-22T02:22:01;23.40;99.90
23813;DHT22;12087;45.190;5.688;2023-06-22T02:27:23;23.40;99.90
23813;DHT22;12087;45.190;5.688;2023-06-22T02:32:45;23.40;99.90
23813;DHT22;12087;45.190;5.688;2023-06-22T02:38:09;23.40;99.90
23813;DHT22;12087;45.190;5.688;2023-06-22T02:43:31;23.30;99.90
23813;DHT22;12087;45.190;5.688;2023-06-22T02:48:53;23.30;99.90
23813;DHT22;12087;45.190;5.688;2023-06-22T02:54:17;23.30;99.90
23813;DHT22;12087;45.190;5.688;2023-06-22T02:59:39;23.20;99.90
23813;DHT22;12087;45.190;5.688;2023-06-22T03:05:02;23.30;99.90
23813;DHT22;12087;45.190;5.688;2023-06-22T03:10:26;23.40;99.90
23813;DHT22;12087;45.190;5.688;2023-06-22T03:15:48;23.40;99.90
23813;DHT22;12087;45.190;5.688;2023-06-22T03:21:11;23.40;99.90
23813;DHT22;12087;45.190;5.688;2023-06-22T03:26:34;23.30;99.90
23813;DHT22;12087;45.190;5.688;2023-06-22T03:31:56;23.30;99.90
23813;DHT22;12087;45.190;5.688;2023-06-22T03:37:19;23.20;99.90
23813;DHT22;12087;45.190;5.688;2023-06-22T03:42:42;23.10;99.90
23813;DHT22;12087;45.190;5.688;2023-06-22T03:48:05;23.10;99.90
23813;DHT22;12087;45.190;5.688;2023-06-22T03:53:27;23.00;99.90
23813;DHT22;12087;45.190;5.688;2023-06-22T03:58:51;23.10;99.90
23813;DHT22;12087;45.190;5.688;2023-06-22T04:04:13;23.10;99.90
23813;DHT22;12087;45.190;5.688;2023-06-22T04:09:35;23.10;99.90
23813;DHT22;12087;45.190;5.688;2023-06-22T04:14:59;23.00;99.90
23813;DHT22;12087;45.190;5.688;2023-06-22T04:20:21;23.00;99.90
23813;DHT22;12087;45.190;5.688;2023-06-22T04:25:46;23.00;99.90
23813;DHT22;12087;45.190;5.688;2023-06-22T04:31:09;22.90;99.90
23813;DHT22;12087;45.190;5.688;2023-06-22T04:36:36;22.80;99.90
23813;DHT22;12087;45.190;5.688;2023-06-22T04:41:59;22.80;99.90
23813;DHT22;12087;45.190;5.688;2023-06-22T04:47:23;22.70;99.90
23813;DHT22;12087;45.190;5.688;2023-06-22T04:52:45;22.70;99.90
23813;DHT22;12087;45.190;5.688;2023-06-22T04:58:07;22.70;99.90
23813;DHT22;12087;45.190;5.688;2023-06-22T05:03:31;22.60;99.90
23813;DHT22;12087;45.190;5.688;2023-06-22T05:08:54;22.50;99.90
23813;DHT22;12087;45.190;5.688;2023-06-22T05:14:18;22.50;99.90
23813;DHT22;12087;45.190;5.688;2023-06-22T05:19:42;22.60;99.90
23813;DHT22;12087;45.190;5.688;2023-06-22T05:25:08;22.70;99.90
23813;DHT22;12087;45.190;5.688;2023-06-22T05:30:31;22.80;99.90
23813;DHT22;12087;45.190;5.688;2023-06-22T05:35:54;22.80;99.90
23813;DHT22;12087;45.190;5.688;2023-06-22T05:41:17;22.90;99.90
23813;DHT22;12087;45.190;5.688;2023-06-22T05:46:42;23.00;99.90
23813;DHT22;12087;45.190;5.688;2023-06-22T05:52:08;23.10;99.90
23813;DHT22;12087;45.190;5.688;2023-06-22T05:57:30;23.10;99.90
23813;DHT22;12087;45.190;5.688;2023-06-22T06:02:52;23.10;99.90
23813;DHT22;12087;45.190;5.688;2023-06-22T06:08:16;23.10;99.90
23813;DHT22;12087;45.190;5.688;2023-06-22T06:13:38;23.10;99.90
23813;DHT22;12087;45.190;5.688;2023-06-22T06:19:01;23.10;99.90
23813;DHT22;12087;45.190;5.688;2023-06-22T06:24:24;23.10;99.90
23813;DHT22;12087;45.190;5.688;2023-06-22T06:29:46;23.20;99.90
23813;DHT22;12087;45.190;5.688;2023-06-22T06:35:10;23.20;99.90
23813;DHT22;12087;45.190;5.688;2023-06-22T06:40:33;23.20;99.90
23813;DHT22;12087;45.190;5.688;2023-06-22T06:45:55;23.30;99.90
23813;DHT22;12087;45.190;5.688;2023-06-22T06:51:18;23.30;99.90
23813;DHT22;12087;45.190;5.688;2023-06-22T06:56:41;23.40;99.90
23813;DHT22;12087;45.190;5.688;2023-06-22T07:02:05;23.30;99.90
23813;DHT22;12087;45.190;5.688;2023-06-22T07:07:27;23.40;99.90
23813;DHT22;12087;45.190;5.688;2023-06-22T07:12:51;23.30;99.90
23813;DHT22;12087;45.190;5.688;2023-06-22T07:18:13;23.30;99.90
23813;DHT22;12087;45.190;5.688;2023-06-22T07:23:35;23.30;99.90
23813;DHT22;12087;45.190;5.688;2023-06-22T07:28:59;23.20;99.90
23813;DHT22;12087;45.190;5.688;2023-06-22T07:34:21;23.20;99.90
23813;DHT22;12087;45.190;5.688;2023-06-22T07:39:43;23.10;99.90
23813;DHT22;12087;45.190;5.688;2023-06-22T07:45:08;23.20;99.90
23813;DHT22;12087;45.190;5.688;2023-06-22T07:50:30;23.40;99.90
23813;DHT22;12087;45.190;5.688;2023-06-22T07:55:52;23.60;99.90
23813;DHT22;12087;45.190;5.688;2023-06-22T08:01:16;23.70;99.90
23813;DHT22;12087;45.190;5.688;2023-06-22T08:06:41;23.80;99.90
23813;DHT22;12087;45.190;5.688;2023-06-22T08:12:05;23.80;99.90
23813;DHT22;12087;45.190;5.688;2023-06-22T08:17:29;23.80;99.90
23813;DHT22;12087;45.190;5.688;2023-06-22T08:22:52;23.80;99.90
23813;DHT22;12087;45.190;5.688;2023-06-22T08:28:15;23.60;99.90
23813;DHT22;12087;45.190;5.688;2023-06-22T08:33:39;23.60;99.90
23813;DHT22;12087;45.190;5.688;2023-06-22T08:39:01;23.70;99.90
23813;DHT22;12087;45.190;5.688;2023-06-22T08:44:24;23.70;99.90
23813;DHT22;12087;45.190;5.688;2023-06-22T08:49:47;23.80;99.90
23813;DHT22;12087;45.190;5.688;2023-06-22T08:55:10;23.80;99.90
23813;DHT22;12087;45.190;5.688;2023-06-22T09:00:32;23.80;99.90
23813;DHT22;12087;45.190;5.688;2023-06-22T09:05:57;23.80;99.90
23813;DHT22;12087;45.190;5.688;2023-06-22T09:11:19;23.60;99.90
23813;DHT22;12087;45.190;5.688;2023-06-22T09:16:41;23.60;99.90
23813;DHT22;12087;45.190;5.688;2023-06-22T09:22:05;23.40;99.90
23813;DHT22;12087;45.190;5.688;2023-06-22T09:27:28;23.40;99.90
23813;DHT22;12087;45.190;5.688;2023-06-22T09:32:50;23.40;99.90
23813;DHT22;12087;45.190;5.688;2023-06-22T09:38:14;23.40;99.90
23813;DHT22;12087;45.190;5.688;2023-06-22T09:43:36;23.40;99.90
23813;DHT22;12087;45.190;5.688;2023-06-22T09:48:58;23.50;99.90
23813;DHT22;12087;45.190;5.688;2023-06-22T09:54:23;23.70;99.90
23813;DHT22;12087;45.190;5.688;2023-06-22T09:59:45;24.10;99.90
23813;DHT22;12087;45.190;5.688;2023-06-22T10:05:08;24.20;99.90
23813;DHT22;12087;45.190;5.688;2023-06-22T10:10:31;24.20;99.90
23813;DHT22;12087;45.190;5.688;2023-06-22T10:15:54;24.20;99.90
23813;DHT22;12087;45.190;5.688;2023-06-22T10:21:16;24.30;99.90
23813;DHT22;12087;45.190;5.688;2023-06-22T10:26:39;24.30;99.90
23813;DHT22;12087;45.190;5.688;2023-06-22T10:32:02;24.30;99.90
23813;DHT22;12087;45.190;5.688;2023-06-22T10:37:24;24.40;99.90
23813;DHT22;12087;45.190;5.688;2023-06-22T10:42:48;24.40;99.90
23813;DHT22;12087;45.190;5.688;2023-06-22T10:48:11;24.50;99.90
23813;DHT22;12087;45.190;5.688;2023-06-22T10:53:33;24.50;99.90
23813;DHT22;12087;45.190;5.688;2023-06-22T10:58:56;24.60;99.90
23813;DHT22;12087;45.190;5.688;2023-06-22T11:04:19;24.80;99.90
23813;DHT22;12087;45.190;5.688;2023-06-22T11:09:41;25.30;99.90
23813;DHT22;12087;45.190;5.688;2023-06-22T11:15:07;25.70;99.90
23813;DHT22;12087;45.190;5.688;2023-06-22T11:20:30;25.70;99.90
23813;DHT22;12087;45.190;5.688;2023-06-22T11:25:52;25.70;99.90
23813;DHT22;12087;45.190;5.688;2023-06-22T11:31:15;25.60;99.90
23813;DHT22;12087;45.190;5.688;2023-06-22T11:36:38;25.60;99.90
23813;DHT22;12087;45.190;5.688;2023-06-22T11:42:00;25.60;99.90
23813;DHT22;12087;45.190;5.688;2023-06-22T11:47:23;25.60;99.90
23813;DHT22;12087;45.190;5.688;2023-06-22T11:52:45;25.70;99.90
23813;DHT22;12087;45.190;5.688;2023-06-22T11:58:08;25.80;99.90
23813;DHT22;12087;45.190;5.688;2023-06-22T12:03:31;25.90;99.90
23813;DHT22;12087;45.190;5.688;2023-06-22T12:08:53;26.30;99.90
23813;DHT22;12087;45.190;5.688;2023-06-22T12:14:16;26.60;99.90
23813;DHT22;12087;45.190;5.688;2023-06-22T12:19:39;26.70;99.90
23813;DHT22;12087;45.190;5.688;2023-06-22T12:25:01;26.60;99.90
23813;DHT22;12087;45.190;5.688;2023-06-22T12:30:24;26.70;99.90
23813;DHT22;12087;45.190;5.688;2023-06-22T12:35:47;26.70;99.90
23813;DHT22;12087;45.190;5.688;2023-06-22T12:41:10;26.80;99.90
23813;DHT22;12087;45.190;5.688;2023-06-22T12:46:32;27.00;99.90
23813;DHT22;12087;45.190;5.688;2023-06-22T12:51:59;26.80;99.90
23813;DHT22;12087;45.190;5.688;2023-06-22T12:57:21;26.80;99.90
23813;DHT22;12087;45.190;5.688;2023-06-22T13:02:44;26.70;99.90
23813;DHT22;12087;45.190;5.688;2023-06-22T13:08:07;26.60;99.90
23813;DHT22;12087;45.190;5.688;2023-06-22T13:13:30;26.70;99.90
23813;DHT22;12087;45.190;5.688;2023-06-22T13:18:52;26.70;99.90
23813;DHT22;12087;45.190;5.688;2023-06-22T13:24:15;26.70;99.90
23813;DHT22;12087;45.190;5.688;2023-06-22T13:29:38;26.80;99.90
23813;DHT22;12087;45.190;5.688;2023-06-22T13:35:00;26.70;99.90
23813;DHT22;12087;45.190;5.688;2023-06-22T13:40:27;26.60;99.90
23813;DHT22;12087;45.190;5.688;2023-06-22T13:45:50;26.50;99.90
23813;DHT22;12087;45.190;5.688;2023-06-22T13:51:13;26.30;99.90
23813;DHT22;12087;45.190;5.688;2023-06-22T13:56:38;25.70;99.90
23813;DHT22;12087;45.190;5.688;2023-06-22T14:02:02;25.20;99.90
23813;DHT22;12087;45.190;5.688;2023-06-22T14:07:24;24.40;99.90
23813;DHT22;12087;45.190;5.688;2023-06-22T14:12:50;22.70;99.90
23813;DHT22;12087;45.190;5.688;2023-06-22T14:18:13;21.10;99.90
23813;DHT22;12087;45.190;5.688;2023-06-22T14:23:39;20.20;99.90
23813;DHT22;12087;45.190;5.688;2023-06-22T14:29:03;19.50;99.90
23813;DHT22;12087;45.190;5.688;2023-06-22T14:34:25;19.10;99.90
23813;DHT22;12087;45.190;5.688;2023-06-22T14:39:48;19.00;99.90
23813;DHT22;12087;45.190;5.688;2023-06-22T14:45:14;18.80;99.90
23813;DHT22;12087;45.190;5.688;2023-06-22T14:50:36;18.80;99.90
23813;DHT22;12087;45.190;5.688;2023-06-22T14:56:00;19.00;99.90
23813;DHT22;12087;45.190;5.688;2023-06-22T15:01:24;19.00;99.90
23813;DHT22;12087;45.190;5.688;2023-06-22T15:06:46;18.90;99.90
23813;DHT22;12087;45.190;5.688;2023-06-22T15:12:09;18.90;99.90
23813;DHT22;12087;45.190;5.688;2023-06-22T15:17:35;19.10;99.90
23813;DHT22;12087;45.190;5.688;2023-06-22T15:22:58;19.00;99.90
23813;DHT22;12087;45.190;5.688;2023-06-22T15:28:20;18.90;99.90
23813;DHT22;12087;45.190;5.688;2023-06-22T15:33:44;18.90;99.90
23813;DHT22;12087;45.190;5.688;2023-06-22T15:39:07;18.80;99.90
23813;DHT22;12087;45.190;5.688;2023-06-22T15:44:29;18.80;99.90
23813;DHT22;12087;45.190;5.688;2023-06-22T15:49:53;18.80;99.90
23813;DHT22;12087;45.190;5.688;2023-06-22T15:55:18;18.80;99.90
23813;DHT22;12087;45.190;5.688;2023-06-22T16:00:40;18.80;99.90
23813;DHT22;12087;45.190;5.688;2023-06-22T16:06:04;18.90;99.90
23813;DHT22;12087;45.190;5.688;2023-06-22T16:11:26;18.90;99.90
23813;DHT22;12087;45.190;5.688;2023-06-22T16:16:48;19.10;99.90
23813;DHT22;12087;45.190;5.688;2023-06-22T16:22:12;19.40;99.90
23813;DHT22;12087;45.190;5.688;2023-06-22T16:27:34;19.50;99.90
23813;DHT22;12087;45.190;5.688;2023-06-22T16:32:57;19.50;99.90
23813;DHT22;12087;45.190;5.688;2023-06-22T16:38:21;19.70;99.90
23813;DHT22;12087;45.190;5.688;2023-06-22T16:43:43;19.80;99.90
23813;DHT22;12087;45.190;5.688;2023-06-22T16:49:06;20.00;99.90
23813;DHT22;12087;45.190;5.688;2023-06-22T16:54:30;20.10;99.90
23813;DHT22;12087;45.190;5.688;2023-06-22T16:59:52;20.20;99.90
23813;DHT22;12087;45.190;5.688;2023-06-22T17:05:15;20.20;99.90
23813;DHT22;12087;45.190;5.688;2023-06-22T17:10:41;20.10;99.90
23813;DHT22;12087;45.190;5.688;2023-06-22T17:16:04;20.10;99.90
23813;DHT22;12087;45.190;5.688;2023-06-22T17:21:27;20.00;99.90
23813;DHT22;12087;45.190;5.688;2023-06-22T17:26:53;20.00;99.90
23813;DHT22;12087;45.190;5.688;2023-06-22T17:32:20;19.90;99.90
23813;DHT22;12087;45.190;5.688;2023-06-22T17:37:50;20.00;99.90
23813;DHT22;12087;45.190;5.688;2023-06-22T17:43:14;20.00;99.90
23813;DHT22;12087;45.190;5.688;2023-06-22T17:48:43;20.00;99.90
23813;DHT22;12087;45.190;5.688;2023-06-22T17:54:06;20.00;99.90
23813;DHT22;12087;45.190;5.688;2023-06-22T17:59:32;19.90;99.90
23813;DHT22;12087;45.190;5.688;2023-06-22T18:04:57;19.90;99.90
23813;DHT22;12087;45.190;5.688;2023-06-22T18:10:19;19.90;99.90
23813;DHT22;12087;45.190;5.688;2023-06-22T18:15:43;19.90;99.90
23813;DHT22;12087;45.190;5.688;2023-06-22T18:21:06;19.90;99.90
23813;DHT22;12087;45.190;5.688;2023-06-22T18:26:29;19.80;99.90
23813;DHT22;12087;45.190;5.688;2023-06-22T18:31:53;19.90;99.90
23813;DHT22;12087;45.190;5.688;2023-06-22T18:37:15;20.00;99.90
23813;DHT22;12087;45.190;5.688;2023-06-22T18:42:43;20.00;99.90
23813;DHT22;12087;45.190;5.688;2023-06-22T18:48:07;20.00;99.90
23813;DHT22;12087;45.190;5.688;2023-06-22T18:53:30;20.00;99.90
23813;DHT22;12087;45.190;5.688;2023-06-22T18:58:56;20.00;99.90
23813;DHT22;12087;45.190;5.688;2023-06-22T19:04:20;20.00;99.90
23813;DHT22;12087;45.190;5.688;2023-06-22T19:15:42;19.90;99.90
23813;DHT22;12087;45.190;5.688;2023-06-22T19:21:09;19.90;99.90
23813;DHT22;12087;45.190;5.688;2023-06-22T19:26:32;19.80;99.90
23813;DHT22;12087;45.190;5.688;2023-06-22T19:31:55;19.80;99.90
23813;DHT22;12087;45.190;5.688;2023-06-22T19:37:19;19.80;99.90
23813;DHT22;12087;45.190;5.688;2023-06-22T19:42:42;19.80;99.90
23813;DHT22;12087;45.190;5.688;2023-06-22T19:48:07;19.70;99.90
23813;DHT22;12087;45.190;5.688;2023-06-22T19:53:31;19.60;99.90
23813;DHT22;12087;45.190;5.688;2023-06-22T19:58:53;19.50;99.90
23813;DHT22;12087;45.190;5.688;2023-06-22T20:04:16;19.50;99.90
23813;DHT22;12087;45.190;5.688;2023-06-22T20:09:39;19.40;99.90
23813;DHT22;12087;45.190;5.688;2023-06-22T20:15:22;19.30;99.90
23813;DHT22;12087;45.190;5.688;2023-06-22T20:20:47;19.30;99.90
23813;DHT22;12087;45.190;5.688;2023-06-22T20:26:11;19.30;99.90
23813;DHT22;12087;45.190;5.688;2023-06-22T20:31:37;19.20;99.90
23813;DHT22;12087;45.190;5.688;2023-06-22T20:37:01;19.20;99.90
23813;DHT22;12087;45.190;5.688;2023-06-22T20:42:25;19.10;99.90
23813;DHT22;12087;45.190;5.688;2023-06-22T20:47:47;19.10;99.90
23813;DHT22;12087;45.190;5.688;2023-06-22T20:53:09;19.10;99.90
23813;DHT22;12087;45.190;5.688;2023-06-22T20:58:33;19.00;99.90
23813;DHT22;12087;45.190;5.688;2023-06-22T21:03:55;19.10;99.90
23813;DHT22;12087;45.190;5.688;2023-06-22T21:09:17;19.10;99.90
23813;DHT22;12087;45.190;5.688;2023-06-22T21:14:43;19.10;99.90
23813;DHT22;12087;45.190;5.688;2023-06-22T21:20:08;19.00;99.90
23813;DHT22;12087;45.190;5.688;2023-06-22T21:25:30;19.00;99.90
23813;DHT22;12087;45.190;5.688;2023-06-22T21:30:53;19.00;99.90
23813;DHT22;12087;45.190;5.688;2023-06-22T21:36:16;19.00;99.90
23813;DHT22;12087;45.190;5.688;2023-06-22T21:41:38;19.00;99.90
23813;DHT22;12087;45.190;5.688;2023-06-22T21:47:02;19.00;99.90
23813;DHT22;12087;45.190;5.688;2023-06-22T21:52:24;18.90;99.90
23813;DHT22;12087;45.190;5.688;2023-06-22T21:57:49;18.90;99.90
23813;DHT22;12087;45.190;5.688;2023-06-22T22:03:13;18.90;99.90
23813;DHT22;12087;45.190;5.688;2023-06-22T22:08:35;18.80;99.90
23813;DHT22;12087;45.190;5.688;2023-06-22T22:13:58;18.80;99.90
23813;DHT22;12087;45.190;5.688;2023-06-22T22:19:22;18.80;99.90
23813;DHT22;12087;45.190;5.688;2023-06-22T22:24:44;18.80;99.90
23813;DHT22;12087;45.190;5.688;2023-06-22T22:30:07;18.80;99.90
23813;DHT22;12087;45.190;5.688;2023-06-22T22:35:31;18.80;99.90
23813;DHT22;12087;45.190;5.688;2023-06-22T22:40:53;18.80;99.90
23813;DHT22;12087;45.190;5.688;2023-06-22T22:46:15;18.80;99.90
23813;DHT22;12087;45.190;5.688;2023-06-22T22:51:39;18.80;99.90
23813;DHT22;12087;45.190;5.688;2023-06-22T22:57:01;18.90;99.90
23813;DHT22;12087;45.190;5.688;2023-06-22T23:02:24;18.90;99.90
23813;DHT22;12087;45.190;5.688;2023-06-22T23:07:48;18.90;99.90
23813;DHT22;12087;45.190;5.688;2023-06-22T23:13:10;18.90;99.90
23813;DHT22;12087;45.190;5.688;2023-06-22T23:18:32;18.80;99.90
23813;DHT22;12087;45.190;5.688;2023-06-22T23:23:56;18.80;99.90
23813;DHT22;12087;45.190;5.688;2023-06-22T23:29:18;18.80;99.90
23813;DHT22;12087;45.190;5.688;2023-06-22T23:34:40;18.80;99.90
23813;DHT22;12087;45.190;5.688;2023-06-22T23:40:07;18.80;99.90
23813;DHT22;12087;45.190;5.688;2023-06-22T23:45:36;18.70;99.90
23813;DHT22;12087;45.190;5.688;2023-06-22T23:50:58;18.80;99.90
23813;DHT22;12087;45.190;5.688;2023-06-22T23:56:22;18.80;99.90
